TimePDT,TemperatureF,Dew PointF,Humidity,Sea Level PressureIn,VisibilityMPH,Wind Direction,Wind SpeedMPH,Gust SpeedMPH,PrecipitationIn,Events,Conditions,WindDirDegrees,DateUTC
2:00 AM,36,35,93,30.32,,Calm,Calm,,,,,,2012-10-07 09:00:00
5:00 AM,37,36,93,30.34,,West,2.3,,,,,270,2012-10-07 12:00:00
6:00 AM,35.6,35.6,100,30.34,0.8,Calm,Calm,-,N/A,,Mist,0,2012-10-07 13:00:00
8:00 AM,35,34,93,30.35,,ENE,2.3,,,,,70,2012-10-07 15:00:00
8:00 AM,33.8,33.8,100,30.35,0.8,Calm,Calm,-,N/A,,Mist,0,2012-10-07 15:00:00
9:00 AM,33.8,33.8,100,30.35,0.8,NNE,2.3,-,N/A,,Mist,30,2012-10-07 16:00:00
10:00 AM,33.8,33.8,100,30.34,0.8,NE,6.9,-,N/A,,Mist,50,2012-10-07 17:00:00
11:00 AM,35,35,98,30.36,,East,3.5,,,,,80,2012-10-07 18:00:00
11:00 AM,35.6,35.6,100,30.36,1.2,East,2.3,-,N/A,,Mist,80,2012-10-07 18:00:00
12:00 PM,37.4,35.6,93,30.36,1.8,NE,2.3,-,N/A,,Mist,50,2012-10-07 19:00:00
12:14 PM,-9999,-9999,N/A,-9999,2.2,ENE,2.3,-,N/A,,Overcast,70,2012-10-07 19:14:00
1:00 PM,39.2,37.4,93,30.35,2.5,Calm,Calm,-,N/A,,Overcast,0,2012-10-07 20:00:00
1:43 PM,-9999,-9999,N/A,-9999,2.5,ENE,2.3,-,N/A,,Mostly Cloudy,70,2012-10-07 20:43:00
2:00 PM,40,37,86,30.33,,ENE,3.5,,,,,70,2012-10-07 21:00:00
2:00 PM,39.2,37.4,93,30.34,3.0,East,2.3,-,N/A,,Mostly Cloudy,80,2012-10-07 21:00:00
3:00 PM,42.8,39.2,87,30.34,3.0,NE,4.6,-,N/A,,Mostly Cloudy,50,2012-10-07 22:00:00
3:14 PM,-9999,-9999,N/A,-9999,5.0,NE,2.3,-,N/A,,Mostly Cloudy,40,2012-10-07 22:14:00
4:00 PM,42.8,39.2,87,30.32,20.0,NNE,2.3,-,N/A,Fog,Mostly Cloudy,20,2012-10-07 23:00:00
5:00 PM,44,39,76,30.30,,ENE,3.5,,,,,60,2012-10-08 00:00:00
8:00 PM,41,39,88,30.27,,Calm,Calm,,,,,,2012-10-08 03:00:00
11:00 PM,38,36,91,30.25,,Calm,Calm,,,,,,2012-10-08 06:00:00